sensor_id;sensor_type;location;lat;lon;timestamp;P1;durP1;ratioP1;P2;durP2;ratioP2
209;SDS011;90;48.810;9.120;2023-06-19T00:01:59;13.67;;;12.57;;
209;SDS011;90;48.810;9.120;2023-06-19T00:04:26;16.67;;;12.10;;
209;SDS011;90;48.810;9.120;2023-06-19T00:06:53;13.60;;;12.93;;
209;SDS011;90;48.810;9.120;2023-06-19T00:09:19;14.13;;;12.50;;
209;SDS011;90;48.810;9.120;2023-06-19T00:11:48;14.97;;;12.03;;
209;SDS011;90;48.810;9.120;2023-06-19T00:14:14;17.83;;;12.23;;
209;SDS011;90;48.810;9.120;2023-06-19T00:16:41;16.67;;;12.00;;
209;SDS011;90;48.810;9.120;2023-06-19T00:19:08;15.07;;;12.20;;
209;SDS011;90;48.810;9.120;2023-06-19T00:21:36;19.43;;;13.07;;
209;SDS011;90;48.810;9.120;2023-06-19T00:24:04;16.07;;;12.80;;
209;SDS011;90;48.810;9.120;2023-06-19T00:26:31;15.73;;;12.53;;
209;SDS011;90;48.810;9.120;2023-06-19T00:28:59;15.30;;;12.23;;
209;SDS011;90;48.810;9.120;2023-06-19T00:31:26;16.83;;;12.27;;
209;SDS011;90;48.810;9.120;2023-06-19T00:33:53;14.27;;;12.43;;
209;SDS011;90;48.810;9.120;2023-06-19T00:36:20;12.80;;;11.93;;
209;SDS011;90;48.810;9.120;2023-06-19T00:38:48;14.27;;;12.30;;
209;SDS011;90;48.810;9.120;2023-06-19T00:41:15;13.57;;;12.00;;
209;SDS011;90;48.810;9.120;2023-06-19T00:43:42;12.47;;;11.83;;
209;SDS011;90;48.810;9.120;2023-06-19T00:46:12;15.73;;;12.40;;
209;SDS011;90;48.810;9.120;2023-06-19T00:48:39;13.97;;;11.67;;
209;SDS011;90;48.810;9.120;2023-06-19T00:51:06;13.53;;;12.23;;
209;SDS011;90;48.810;9.120;2023-06-19T00:53:32;12.90;;;12.13;;
209;SDS011;90;48.810;9.120;2023-06-19T00:56:00;13.10;;;11.67;;
209;SDS011;90;48.810;9.120;2023-06-19T00:58:27;11.30;;;10.70;;
209;SDS011;90;48.810;9.120;2023-06-19T01:00:54;12.17;;;11.57;;
209;SDS011;90;48.810;9.120;2023-06-19T01:03:23;14.50;;;11.20;;
209;SDS011;90;48.810;9.120;2023-06-19T01:05:51;11.57;;;10.63;;
209;SDS011;90;48.810;9.120;2023-06-19T01:08:25;12.70;;;11.97;;
209;SDS011;90;48.810;9.120;2023-06-19T01:11:12;17.53;;;12.30;;
209;SDS011;90;48.810;9.120;2023-06-19T01:13:44;14.33;;;11.93;;
209;SDS011;90;48.810;9.120;2023-06-19T01:16:14;14.37;;;12.10;;
209;SDS011;90;48.810;9.120;2023-06-19T01:18:43;20.77;;;11.03;;
209;SDS011;90;48.810;9.120;2023-06-19T01:21:11;17.10;;;10.50;;
209;SDS011;90;48.810;9.120;2023-06-19T01:23:40;11.33;;;9.83;;
209;SDS011;90;48.810;9.120;2023-06-19T01:26:07;12.00;;;10.27;;
209;SDS011;90;48.810;9.120;2023-06-19T01:28:34;10.73;;;10.10;;
209;SDS011;90;48.810;9.120;2023-06-19T01:31:02;11.20;;;9.70;;
209;SDS011;90;48.810;9.120;2023-06-19T01:33:32;13.27;;;10.57;;
209;SDS011;90;48.810;9.120;2023-06-19T01:36:02;14.20;;;10.70;;
209;SDS011;90;48.810;9.120;2023-06-19T01:38:30;11.00;;;10.30;;
209;SDS011;90;48.810;9.120;2023-06-19T01:40:59;11.27;;;9.63;;
209;SDS011;90;48.810;9.120;2023-06-19T01:43:27;14.33;;;9.20;;
209;SDS011;90;48.810;9.120;2023-06-19T01:45:55;13.30;;;9.77;;
209;SDS011;90;48.810;9.120;2023-06-19T01:48:22;10.27;;;9.40;;
209;SDS011;90;48.810;9.120;2023-06-19T01:50:49;10.20;;;8.80;;
209;SDS011;90;48.810;9.120;2023-06-19T01:53:16;16.60;;;10.23;;
209;SDS011;90;48.810;9.120;2023-06-19T01:55:43;9.80;;;9.33;;
209;SDS011;90;48.810;9.120;2023-06-19T01:58:12;11.57;;;9.83;;
209;SDS011;90;48.810;9.120;2023-06-19T02:00:38;10.73;;;9.73;;
209;SDS011;90;48.810;9.120;2023-06-19T02:03:05;10.47;;;9.43;;
209;SDS011;90;48.810;9.120;2023-06-19T02:05:32;10.00;;;8.63;;
209;SDS011;90;48.810;9.120;2023-06-19T02:07:59;9.37;;;8.63;;
209;SDS011;90;48.810;9.120;2023-06-19T02:10:26;9.30;;;8.80;;
209;SDS011;90;48.810;9.120;2023-06-19T02:12:52;12.20;;;9.67;;
209;SDS011;90;48.810;9.120;2023-06-19T02:15:20;10.50;;;9.00;;
209;SDS011;90;48.810;9.120;2023-06-19T02:17:47;12.47;;;8.77;;
209;SDS011;90;48.810;9.120;2023-06-19T02:20:14;12.00;;;8.93;;
209;SDS011;90;48.810;9.120;2023-06-19T02:22:41;9.73;;;7.72;;
209;SDS011;90;48.810;9.120;2023-06-19T02:25:07;11.10;;;9.20;;
209;SDS011;90;48.810;9.120;2023-06-19T02:27:34;9.57;;;8.40;;
209;SDS011;90;48.810;9.120;2023-06-19T02:30:01;10.57;;;9.20;;
209;SDS011;90;48.810;9.120;2023-06-19T02:32:29;20.47;;;9.03;;
209;SDS011;90;48.810;9.120;2023-06-19T02:34:57;9.10;;;8.60;;
209;SDS011;90;48.810;9.120;2023-06-19T02:37:24;9.50;;;9.00;;
209;SDS011;90;48.810;9.120;2023-06-19T02:39:51;15.43;;;8.53;;
209;SDS011;90;48.810;9.120;2023-06-19T02:42:18;8.30;;;7.87;;
209;SDS011;90;48.810;9.120;2023-06-19T02:44:44;8.73;;;8.23;;
209;SDS011;90;48.810;9.120;2023-06-19T02:47:11;7.93;;;7.53;;
209;SDS011;90;48.810;9.120;2023-06-19T02:49:39;8.53;;;8.07;;
209;SDS011;90;48.810;9.120;2023-06-19T02:52:06;10.20;;;7.43;;
209;SDS011;90;48.810;9.120;2023-06-19T02:54:33;8.07;;;7.67;;
209;SDS011;90;48.810;9.120;2023-06-19T02:57:00;15.53;;;7.90;;
209;SDS011;90;48.810;9.120;2023-06-19T02:59:27;10.80;;;7.37;;
209;SDS011;90;48.810;9.120;2023-06-19T03:01:53;11.43;;;7.80;;
209;SDS011;90;48.810;9.120;2023-06-19T03:04:20;7.10;;;6.70;;
209;SDS011;90;48.810;9.120;2023-06-19T03:06:49;11.37;;;7.53;;
209;SDS011;90;48.810;9.120;2023-06-19T03:09:15;7.27;;;6.77;;
209;SDS011;90;48.810;9.120;2023-06-19T03:11:43;8.50;;;7.47;;
209;SDS011;90;48.810;9.120;2023-06-19T03:14:09;6.90;;;6.50;;
209;SDS011;90;48.810;9.120;2023-06-19T03:16:36;7.03;;;6.63;;
209;SDS011;90;48.810;9.120;2023-06-19T03:19:03;7.13;;;6.73;;
209;SDS011;90;48.810;9.120;2023-06-19T03:21:29;7.60;;;7.20;;
209;SDS011;90;48.810;9.120;2023-06-19T03:23:57;6.93;;;6.53;;
209;SDS011;90;48.810;9.120;2023-06-19T03:26:24;7.03;;;6.63;;
209;SDS011;90;48.810;9.120;2023-06-19T03:28:51;6.63;;;6.23;;
209;SDS011;90;48.810;9.120;2023-06-19T03:31:18;6.27;;;5.70;;
209;SDS011;90;48.810;9.120;2023-06-19T03:33:44;6.20;;;5.90;;
209;SDS011;90;48.810;9.120;2023-06-19T03:36:11;6.27;;;5.93;;
209;SDS011;90;48.810;9.120;2023-06-19T03:38:38;5.87;;;5.57;;
209;SDS011;90;48.810;9.120;2023-06-19T03:41:06;6.10;;;5.80;;
209;SDS011;90;48.810;9.120;2023-06-19T03:43:33;7.90;;;5.47;;
209;SDS011;90;48.810;9.120;2023-06-19T03:46:00;5.90;;;5.60;;
209;SDS011;90;48.810;9.120;2023-06-19T03:48:27;6.43;;;6.03;;
209;SDS011;90;48.810;9.120;2023-06-19T03:50:53;5.87;;;5.57;;
209;SDS011;90;48.810;9.120;2023-06-19T03:53:20;6.00;;;5.70;;
209;SDS011;90;48.810;9.120;2023-06-19T03:55:47;5.83;;;5.37;;
209;SDS011;90;48.810;9.120;2023-06-19T03:58:15;5.73;;;5.43;;
209;SDS011;90;48.810;9.120;2023-06-19T04:00:42;6.67;;;6.23;;
209;SDS011;90;48.810;9.120;2023-06-19T04:03:09;5.40;;;5.10;;
209;SDS011;90;48.810;9.120;2023-06-19T04:05:36;5.73;;;5.27;;
209;SDS011;90;48.810;9.120;2023-06-19T04:08:04;5.13;;;4.83;;
209;SDS011;90;48.810;9.120;2023-06-19T04:10:31;5.60;;;5.30;;
209;SDS011;90;48.810;9.120;2023-06-19T04:12:57;4.93;;;4.63;;
209;SDS011;90;48.810;9.120;2023-06-19T04:15:25;5.37;;;4.97;;
209;SDS011;90;48.810;9.120;2023-06-19T04:17:52;5.60;;;5.40;;
209;SDS011;90;48.810;9.120;2023-06-19T04:20:19;7.00;;;5.63;;
209;SDS011;90;48.810;9.120;2023-06-19T04:22:46;7.00;;;5.37;;
209;SDS011;90;48.810;9.120;2023-06-19T04:25:12;6.70;;;4.67;;
209;SDS011;90;48.810;9.120;2023-06-19T04:27:39;5.80;;;5.53;;
209;SDS011;90;48.810;9.120;2023-06-19T04:30:06;5.83;;;5.53;;
209;SDS011;90;48.810;9.120;2023-06-19T04:32:35;5.90;;;5.60;;
209;SDS011;90;48.810;9.120;2023-06-19T04:35:05;5.60;;;5.30;;
209;SDS011;90;48.810;9.120;2023-06-19T04:37:33;5.80;;;5.50;;
209;SDS011;90;48.810;9.120;2023-06-19T04:39:59;5.27;;;4.97;;
209;SDS011;90;48.810;9.120;2023-06-19T04:42:26;5.22;;;4.70;;
209;SDS011;90;48.810;9.120;2023-06-19T04:44:53;7.13;;;5.70;;
209;SDS011;90;48.810;9.120;2023-06-19T04:47:22;5.63;;;5.33;;
209;SDS011;90;48.810;9.120;2023-06-19T04:49:50;6.60;;;6.20;;
209;SDS011;90;48.810;9.120;2023-06-19T04:52:17;5.97;;;5.40;;
209;SDS011;90;48.810;9.120;2023-06-19T04:54:44;5.80;;;5.50;;
209;SDS011;90;48.810;9.120;2023-06-19T04:57:13;5.90;;;5.60;;
209;SDS011;90;48.810;9.120;2023-06-19T04:59:40;5.90;;;5.60;;
209;SDS011;90;48.810;9.120;2023-06-19T05:02:10;5.50;;;5.23;;
209;SDS011;90;48.810;9.120;2023-06-19T05:04:37;6.10;;;5.80;;
209;SDS011;90;48.810;9.120;2023-06-19T05:07:09;5.87;;;5.57;;
209;SDS011;90;48.810;9.120;2023-06-19T05:09:37;5.53;;;5.23;;
209;SDS011;90;48.810;9.120;2023-06-19T05:12:04;5.70;;;5.40;;
209;SDS011;90;48.810;9.120;2023-06-19T05:14:31;5.13;;;4.83;;
209;SDS011;90;48.810;9.120;2023-06-19T05:16:58;7.43;;;5.97;;
209;SDS011;90;48.810;9.120;2023-06-19T05:19:25;8.60;;;5.70;;
209;SDS011;90;48.810;9.120;2023-06-19T05:21:51;6.03;;;5.73;;
209;SDS011;90;48.810;9.120;2023-06-19T05:24:20;8.63;;;6.20;;
209;SDS011;90;48.810;9.120;2023-06-19T05:26:46;5.87;;;5.57;;
209;SDS011;90;48.810;9.120;2023-06-19T05:29:13;7.17;;;6.07;;
209;SDS011;90;48.810;9.120;2023-06-19T05:31:40;6.67;;;6.27;;
209;SDS011;90;48.810;9.120;2023-06-19T05:34:06;5.80;;;5.50;;
209;SDS011;90;48.810;9.120;2023-06-19T05:36:33;5.93;;;5.63;;
209;SDS011;90;48.810;9.120;2023-06-19T05:39:00;6.50;;;6.10;;
209;SDS011;90;48.810;9.120;2023-06-19T05:41:28;6.10;;;5.80;;
209;SDS011;90;48.810;9.120;2023-06-19T05:43:55;6.10;;;5.80;;
209;SDS011;90;48.810;9.120;2023-06-19T05:46:25;6.53;;;6.13;;
209;SDS011;90;48.810;9.120;2023-06-19T05:48:51;6.67;;;6.27;;
209;SDS011;90;48.810;9.120;2023-06-19T05:51:19;6.90;;;6.50;;
209;SDS011;90;48.810;9.120;2023-06-19T05:53:46;6.43;;;6.03;;
209;SDS011;90;48.810;9.120;2023-06-19T05:56:14;7.83;;;5.67;;
209;SDS011;90;48.810;9.120;2023-06-19T05:58:42;6.60;;;6.20;;
209;SDS011;90;48.810;9.120;2023-06-19T06:01:09;6.27;;;5.93;;
209;SDS011;90;48.810;9.120;2023-06-19T06:03:36;6.63;;;6.00;;
209;SDS011;90;48.810;9.120;2023-06-19T06:06:02;6.17;;;5.87;;
209;SDS011;90;48.810;9.120;2023-06-19T06:08:30;6.50;;;6.10;;
209;SDS011;90;48.810;9.120;2023-06-19T06:10:57;7.40;;;7.00;;
209;SDS011;90;48.810;9.120;2023-06-19T06:13:24;6.50;;;6.10;;
209;SDS011;90;48.810;9.120;2023-06-19T06:15:52;7.20;;;6.80;;
209;SDS011;90;48.810;9.120;2023-06-19T06:18:18;6.10;;;5.80;;
209;SDS011;90;48.810;9.120;2023-06-19T06:20:45;5.80;;;5.60;;
209;SDS011;90;48.810;9.120;2023-06-19T06:23:12;6.27;;;5.93;;
209;SDS011;90;48.810;9.120;2023-06-19T06:25:39;6.87;;;6.47;;
209;SDS011;90;48.810;9.120;2023-06-19T06:28:06;6.43;;;6.03;;
209;SDS011;90;48.810;9.120;2023-06-19T06:30:32;6.40;;;6.00;;
209;SDS011;90;48.810;9.120;2023-06-19T06:33:00;7.07;;;6.00;;
209;SDS011;90;48.810;9.120;2023-06-19T06:35:27;6.37;;;6.00;;
209;SDS011;90;48.810;9.120;2023-06-19T06:37:54;9.30;;;6.10;;
209;SDS011;90;48.810;9.120;2023-06-19T06:40:20;5.93;;;5.63;;
209;SDS011;90;48.810;9.120;2023-06-19T06:42:47;6.50;;;6.10;;
209;SDS011;90;48.810;9.120;2023-06-19T06:45:14;5.70;;;5.40;;
209;SDS011;90;48.810;9.120;2023-06-19T06:47:41;6.03;;;5.73;;
209;SDS011;90;48.810;9.120;2023-06-19T06:50:09;5.93;;;5.50;;
209;SDS011;90;48.810;9.120;2023-06-19T06:52:36;6.00;;;5.70;;
209;SDS011;90;48.810;9.120;2023-06-19T06:55:03;7.03;;;6.63;;
209;SDS011;90;48.810;9.120;2023-06-19T06:57:30;6.73;;;5.27;;
209;SDS011;90;48.810;9.120;2023-06-19T06:59:57;6.70;;;6.30;;
209;SDS011;90;48.810;9.120;2023-06-19T07:02:24;5.63;;;5.33;;
209;SDS011;90;48.810;9.120;2023-06-19T07:04:50;9.97;;;6.10;;
209;SDS011;90;48.810;9.120;2023-06-19T07:07:19;5.50;;;5.20;;
209;SDS011;90;48.810;9.120;2023-06-19T07:09:45;7.10;;;5.27;;
209;SDS011;90;48.810;9.120;2023-06-19T07:12:12;7.40;;;5.77;;
209;SDS011;90;48.810;9.120;2023-06-19T07:14:39;5.50;;;5.10;;
209;SDS011;90;48.810;9.120;2023-06-19T07:17:06;5.67;;;5.43;;
209;SDS011;90;48.810;9.120;2023-06-19T07:19:33;5.90;;;5.60;;
209;SDS011;90;48.810;9.120;2023-06-19T07:21:59;6.00;;;5.70;;
209;SDS011;90;48.810;9.120;2023-06-19T07:24:28;5.53;;;5.23;;
209;SDS011;90;48.810;9.120;2023-06-19T07:26:54;6.20;;;5.90;;
209;SDS011;90;48.810;9.120;2023-06-19T07:29:21;7.13;;;5.67;;
209;SDS011;90;48.810;9.120;2023-06-19T07:31:48;6.23;;;5.90;;
209;SDS011;90;48.810;9.120;2023-06-19T07:34:15;5.43;;;5.13;;
209;SDS011;90;48.810;9.120;2023-06-19T07:36:41;5.67;;;5.37;;
209;SDS011;90;48.810;9.120;2023-06-19T07:39:08;5.73;;;5.43;;
209;SDS011;90;48.810;9.120;2023-06-19T07:41:37;5.30;;;5.00;;
209;SDS011;90;48.810;9.120;2023-06-19T07:44:04;6.03;;;5.73;;
209;SDS011;90;48.810;9.120;2023-06-19T07:46:30;6.83;;;6.43;;
209;SDS011;90;48.810;9.120;2023-06-19T07:48:57;5.83;;;5.53;;
209;SDS011;90;48.810;9.120;2023-06-19T07:51:24;5.63;;;5.33;;
209;SDS011;90;48.810;9.120;2023-06-19T07:53:51;7.17;;;5.30;;
209;SDS011;90;48.810;9.120;2023-06-19T07:56:18;7.07;;;6.00;;
209;SDS011;90;48.810;9.120;2023-06-19T07:58:46;5.20;;;4.90;;
209;SDS011;90;48.810;9.120;2023-06-19T08:01:13;5.43;;;5.13;;
209;SDS011;90;48.810;9.120;2023-06-19T08:03:41;5.47;;;5.17;;
209;SDS011;90;48.810;9.120;2023-06-19T08:06:08;5.87;;;5.57;;
209;SDS011;90;48.810;9.120;2023-06-19T08:08:35;6.00;;;5.70;;
209;SDS011;90;48.810;9.120;2023-06-19T08:11:02;5.20;;;4.90;;
209;SDS011;90;48.810;9.120;2023-06-19T08:13:29;5.70;;;5.40;;
209;SDS011;90;48.810;9.120;2023-06-19T08:15:57;6.67;;;5.90;;
209;SDS011;90;48.810;9.120;2023-06-19T08:18:23;5.60;;;5.30;;
209;SDS011;90;48.810;9.120;2023-06-19T08:20:50;6.07;;;5.77;;
209;SDS011;90;48.810;9.120;2023-06-19T08:23:17;5.87;;;5.57;;
209;SDS011;90;48.810;9.120;2023-06-19T08:25:44;5.57;;;5.33;;
209;SDS011;90;48.810;9.120;2023-06-19T08:28:10;6.27;;;5.93;;
209;SDS011;90;48.810;9.120;2023-06-19T08:30:37;6.10;;;5.80;;
209;SDS011;90;48.810;9.120;2023-06-19T08:33:05;6.03;;;5.73;;
209;SDS011;90;48.810;9.120;2023-06-19T08:35:33;5.93;;;5.63;;
209;SDS011;90;48.810;9.120;2023-06-19T08:38:00;6.20;;;5.90;;
209;SDS011;90;48.810;9.120;2023-06-19T08:40:26;9.00;;;5.83;;
209;SDS011;90;48.810;9.120;2023-06-19T08:42:53;5.63;;;5.33;;
209;SDS011;90;48.810;9.120;2023-06-19T08:45:21;6.07;;;5.77;;
209;SDS011;90;48.810;9.120;2023-06-19T08:47:48;6.90;;;6.50;;
209;SDS011;90;48.810;9.120;2023-06-19T08:50:16;6.07;;;5.77;;
209;SDS011;90;48.810;9.120;2023-06-19T08:52:43;6.93;;;5.90;;
209;SDS011;90;48.810;9.120;2023-06-19T08:55:10;7.10;;;6.70;;
209;SDS011;90;48.810;9.120;2023-06-19T08:57:37;6.63;;;6.23;;
209;SDS011;90;48.810;9.120;2023-06-19T09:00:05;6.00;;;5.70;;
209;SDS011;90;48.810;9.120;2023-06-19T09:02:39;7.00;;;6.60;;
209;SDS011;90;48.810;9.120;2023-06-19T09:05:11;6.53;;;6.13;;
209;SDS011;90;48.810;9.120;2023-06-19T09:07:40;6.73;;;6.33;;
209;SDS011;90;48.810;9.120;2023-06-19T09:10:11;7.20;;;6.80;;
209;SDS011;90;48.810;9.120;2023-06-19T09:12:41;9.17;;;6.93;;
209;SDS011;90;48.810;9.120;2023-06-19T09:15:11;7.80;;;6.80;;
209;SDS011;90;48.810;9.120;2023-06-19T09:17:41;6.53;;;6.13;;
209;SDS011;90;48.810;9.120;2023-06-19T09:20:09;7.10;;;6.73;;
209;SDS011;90;48.810;9.120;2023-06-19T09:22:37;7.80;;;7.10;;
209;SDS011;90;48.810;9.120;2023-06-19T09:25:06;8.87;;;6.10;;
209;SDS011;90;48.810;9.120;2023-06-19T09:27:35;7.63;;;7.23;;
209;SDS011;90;48.810;9.120;2023-06-19T09:30:02;8.43;;;7.50;;
209;SDS011;90;48.810;9.120;2023-06-19T09:32:33;6.63;;;6.23;;
209;SDS011;90;48.810;9.120;2023-06-19T09:35:00;7.47;;;7.07;;
209;SDS011;90;48.810;9.120;2023-06-19T09:37:28;7.47;;;7.07;;
209;SDS011;90;48.810;9.120;2023-06-19T09:39:58;7.70;;;7.30;;
209;SDS011;90;48.810;9.120;2023-06-19T09:42:29;7.37;;;6.77;;
209;SDS011;90;48.810;9.120;2023-06-19T09:44:58;7.33;;;6.83;;
209;SDS011;90;48.810;9.120;2023-06-19T09:49:57;7.20;;;6.80;;
209;SDS011;90;48.810;9.120;2023-06-19T09:52:27;7.43;;;7.03;;
209;SDS011;90;48.810;9.120;2023-06-19T09:54:58;8.13;;;7.73;;
209;SDS011;90;48.810;9.120;2023-06-19T09:57:30;8.17;;;7.80;;
209;SDS011;90;48.810;9.120;2023-06-19T09:59:59;7.77;;;7.37;;
209;SDS011;90;48.810;9.120;2023-06-19T10:02:34;7.47;;;7.07;;
209;SDS011;90;48.810;9.120;2023-06-19T10:05:05;8.53;;;7.13;;
209;SDS011;90;48.810;9.120;2023-06-19T10:07:37;12.53;;;8.07;;
209;SDS011;90;48.810;9.120;2023-06-19T10:10:08;9.37;;;7.37;;
209;SDS011;90;48.810;9.120;2023-06-19T10:12:39;7.80;;;7.40;;
209;SDS011;90;48.810;9.120;2023-06-19T10:15:09;10.97;;;8.60;;
209;SDS011;90;48.810;9.120;2023-06-19T10:17:45;9.13;;;7.13;;
209;SDS011;90;48.810;9.120;2023-06-19T10:20:24;8.10;;;7.70;;
209;SDS011;90;48.810;9.120;2023-06-19T10:22:56;7.30;;;6.90;;
209;SDS011;90;48.810;9.120;2023-06-19T10:25:27;8.07;;;7.10;;
209;SDS011;90;48.810;9.120;2023-06-19T10:27:57;8.07;;;7.50;;
209;SDS011;90;48.810;9.120;2023-06-19T10:30:25;8.00;;;7.60;;
209;SDS011;90;48.810;9.120;2023-06-19T10:32:52;8.13;;;7.73;;
209;SDS011;90;48.810;9.120;2023-06-19T10:35:19;7.90;;;7.27;;
209;SDS011;90;48.810;9.120;2023-06-19T10:37:47;7.20;;;6.80;;
209;SDS011;90;48.810;9.120;2023-06-19T10:40:14;7.83;;;7.10;;
209;SDS011;90;48.810;9.120;2023-06-19T10:42:41;10.53;;;7.17;;
209;SDS011;90;48.810;9.120;2023-06-19T10:45:10;7.77;;;6.97;;
209;SDS011;90;48.810;9.120;2023-06-19T10:47:38;9.87;;;7.37;;
209;SDS011;90;48.810;9.120;2023-06-19T10:50:09;7.77;;;7.37;;
209;SDS011;90;48.810;9.120;2023-06-19T10:52:38;7.60;;;7.07;;
209;SDS011;90;48.810;9.120;2023-06-19T10:55:06;7.40;;;7.00;;
209;SDS011;90;48.810;9.120;2023-06-19T10:57:33;7.60;;;7.20;;
209;SDS011;90;48.810;9.120;2023-06-19T11:00:00;9.87;;;7.90;;
209;SDS011;90;48.810;9.120;2023-06-19T11:02:32;11.00;;;7.53;;
209;SDS011;90;48.810;9.120;2023-06-19T11:04:58;7.67;;;7.27;;
209;SDS011;90;48.810;9.120;2023-06-19T11:07:25;7.33;;;6.93;;
209;SDS011;90;48.810;9.120;2023-06-19T11:09:53;9.27;;;7.70;;
209;SDS011;90;48.810;9.120;2023-06-19T11:12:20;8.40;;;7.67;;
209;SDS011;90;48.810;9.120;2023-06-19T11:14:47;9.03;;;7.97;;
209;SDS011;90;48.810;9.120;2023-06-19T11:17:14;10.10;;;8.00;;
209;SDS011;90;48.810;9.120;2023-06-19T11:19:44;8.50;;;8.00;;
209;SDS011;90;48.810;9.120;2023-06-19T11:22:11;9.43;;;7.90;;
209;SDS011;90;48.810;9.120;2023-06-19T11:24:42;7.80;;;7.40;;
209;SDS011;90;48.810;9.120;2023-06-19T11:27:16;10.43;;;7.00;;
209;SDS011;90;48.810;9.120;2023-06-19T11:29:44;10.03;;;8.07;;
209;SDS011;90;48.810;9.120;2023-06-19T11:32:12;8.53;;;8.03;;
209;SDS011;90;48.810;9.120;2023-06-19T11:34:40;8.27;;;7.87;;
209;SDS011;90;48.810;9.120;2023-06-19T11:37:14;10.03;;;8.50;;
209;SDS011;90;48.810;9.120;2023-06-19T11:39:43;8.57;;;8.07;;
209;SDS011;90;48.810;9.120;2023-06-19T11:42:10;10.20;;;8.50;;
209;SDS011;90;48.810;9.120;2023-06-19T11:44:52;8.70;;;8.20;;
209;SDS011;90;48.810;9.120;2023-06-19T11:47:19;10.50;;;8.20;;
209;SDS011;90;48.810;9.120;2023-06-19T11:49:47;8.80;;;8.33;;
209;SDS011;90;48.810;9.120;2023-06-19T11:52:16;8.77;;;8.27;;
209;SDS011;90;48.810;9.120;2023-06-19T11:54:43;8.73;;;8.13;;
209;SDS011;90;48.810;9.120;2023-06-19T11:57:09;8.23;;;7.87;;
209;SDS011;90;48.810;9.120;2023-06-19T11:59:38;12.67;;;8.33;;
209;SDS011;90;48.810;9.120;2023-06-19T12:02:05;8.50;;;8.00;;
209;SDS011;90;48.810;9.120;2023-06-19T12:04:32;9.20;;;8.70;;
209;SDS011;90;48.810;9.120;2023-06-19T12:06:59;8.37;;;7.50;;
209;SDS011;90;48.810;9.120;2023-06-19T12:09:28;8.17;;;7.77;;
209;SDS011;90;48.810;9.120;2023-06-19T12:11:54;7.67;;;7.27;;
209;SDS011;90;48.810;9.120;2023-06-19T12:14:21;10.17;;;7.80;;
209;SDS011;90;48.810;9.120;2023-06-19T12:16:49;9.53;;;8.20;;
209;SDS011;90;48.810;9.120;2023-06-19T12:19:16;12.63;;;8.40;;
209;SDS011;90;48.810;9.120;2023-06-19T12:21:42;8.33;;;7.50;;
209;SDS011;90;48.810;9.120;2023-06-19T12:24:09;8.75;;;7.50;;
209;SDS011;90;48.810;9.120;2023-06-19T12:26:37;9.77;;;8.03;;
209;SDS011;90;48.810;9.120;2023-06-19T12:29:05;8.07;;;7.67;;
209;SDS011;90;48.810;9.120;2023-06-19T12:31:32;9.13;;;8.63;;
209;SDS011;90;48.810;9.120;2023-06-19T12:34:00;10.33;;;8.10;;
209;SDS011;90;48.810;9.120;2023-06-19T12:36:27;9.60;;;8.00;;
209;SDS011;90;48.810;9.120;2023-06-19T12:38:56;9.43;;;8.93;;
209;SDS011;90;48.810;9.120;2023-06-19T12:41:22;11.87;;;8.37;;
209;SDS011;90;48.810;9.120;2023-06-19T12:43:50;8.50;;;8.00;;
209;SDS011;90;48.810;9.120;2023-06-19T12:46:17;8.03;;;7.63;;
209;SDS011;90;48.810;9.120;2023-06-19T12:48:44;11.23;;;7.87;;
209;SDS011;90;48.810;9.120;2023-06-19T12:51:15;7.90;;;7.50;;
209;SDS011;90;48.810;9.120;2023-06-19T12:53:42;9.90;;;8.10;;
209;SDS011;90;48.810;9.120;2023-06-19T12:56:09;8.47;;;8.00;;
209;SDS011;90;48.810;9.120;2023-06-19T12:58:36;8.03;;;7.63;;
209;SDS011;90;48.810;9.120;2023-06-19T13:01:04;8.63;;;8.13;;
209;SDS011;90;48.810;9.120;2023-06-19T13:03:30;8.63;;;8.13;;
209;SDS011;90;48.810;9.120;2023-06-19T13:05:57;10.80;;;8.70;;
209;SDS011;90;48.810;9.120;2023-06-19T13:08:24;10.53;;;8.77;;
209;SDS011;90;48.810;9.120;2023-06-19T13:10:50;10.50;;;8.27;;
209;SDS011;90;48.810;9.120;2023-06-19T13:13:17;10.17;;;8.20;;
209;SDS011;90;48.810;9.120;2023-06-19T13:15:44;7.60;;;7.20;;
209;SDS011;90;48.810;9.120;2023-06-19T13:18:12;8.70;;;8.20;;
209;SDS011;90;48.810;9.120;2023-06-19T13:20:38;8.93;;;8.10;;
209;SDS011;90;48.810;9.120;2023-06-19T13:23:05;8.07;;;7.67;;
209;SDS011;90;48.810;9.120;2023-06-19T13:25:32;8.77;;;8.27;;
209;SDS011;90;48.810;9.120;2023-06-19T13:27:58;9.50;;;7.77;;
209;SDS011;90;48.810;9.120;2023-06-19T13:30:25;9.00;;;8.27;;
209;SDS011;90;48.810;9.120;2023-06-19T13:32:52;9.30;;;7.47;;
209;SDS011;90;48.810;9.120;2023-06-19T13:35:20;8.87;;;8.30;;
209;SDS011;90;48.810;9.120;2023-06-19T13:37:47;7.97;;;7.57;;
209;SDS011;90;48.810;9.120;2023-06-19T13:40:14;8.57;;;8.07;;
209;SDS011;90;48.810;9.120;2023-06-19T13:42:40;8.07;;;7.67;;
209;SDS011;90;48.810;9.120;2023-06-19T13:45:07;8.10;;;7.70;;
209;SDS011;90;48.810;9.120;2023-06-19T13:47:35;8.17;;;7.77;;
209;SDS011;90;48.810;9.120;2023-06-19T13:50:02;8.00;;;7.60;;
209;SDS011;90;48.810;9.120;2023-06-19T13:52:30;8.00;;;7.60;;
209;SDS011;90;48.810;9.120;2023-06-19T13:54:57;9.38;;;8.00;;
209;SDS011;90;48.810;9.120;2023-06-19T13:57:24;11.70;;;8.50;;
209;SDS011;90;48.810;9.120;2023-06-19T13:59:50;9.70;;;7.63;;
209;SDS011;90;48.810;9.120;2023-06-19T14:02:17;8.23;;;7.83;;
209;SDS011;90;48.810;9.120;2023-06-19T14:04:44;8.70;;;8.20;;
209;SDS011;90;48.810;9.120;2023-06-19T14:07:10;8.60;;;8.10;;
209;SDS011;90;48.810;9.120;2023-06-19T14:09:39;9.03;;;8.00;;
209;SDS011;90;48.810;9.120;2023-06-19T14:12:06;8.23;;;7.83;;
209;SDS011;90;48.810;9.120;2023-06-19T14:14:34;8.43;;;7.97;;
209;SDS011;90;48.810;9.120;2023-06-19T14:17:01;8.60;;;8.10;;
209;SDS011;90;48.810;9.120;2023-06-19T14:19:28;8.40;;;7.93;;
209;SDS011;90;48.810;9.120;2023-06-19T14:21:54;9.13;;;7.93;;
209;SDS011;90;48.810;9.120;2023-06-19T14:24:21;8.27;;;7.87;;
209;SDS011;90;48.810;9.120;2023-06-19T14:26:50;8.33;;;7.90;;
209;SDS011;90;48.810;9.120;2023-06-19T14:29:17;7.80;;;7.40;;
209;SDS011;90;48.810;9.120;2023-06-19T14:31:45;9.20;;;8.70;;
209;SDS011;90;48.810;9.120;2023-06-19T14:34:12;8.33;;;7.90;;
209;SDS011;90;48.810;9.120;2023-06-19T14:36:39;9.67;;;7.50;;
209;SDS011;90;48.810;9.120;2023-06-19T14:39:05;8.47;;;7.83;;
209;SDS011;90;48.810;9.120;2023-06-19T14:41:32;8.50;;;7.90;;
209;SDS011;90;48.810;9.120;2023-06-19T14:44:00;8.43;;;7.97;;
209;SDS011;90;48.810;9.120;2023-06-19T14:46:27;8.07;;;7.67;;
209;SDS011;90;48.810;9.120;2023-06-19T14:48:54;9.87;;;8.57;;
209;SDS011;90;48.810;9.120;2023-06-19T14:51:23;8.90;;;8.40;;
209;SDS011;90;48.810;9.120;2023-06-19T14:53:50;8.77;;;8.27;;
209;SDS011;90;48.810;9.120;2023-06-19T14:56:17;8.63;;;8.13;;
209;SDS011;90;48.810;9.120;2023-06-19T14:58:43;8.60;;;8.10;;
209;SDS011;90;48.810;9.120;2023-06-19T15:01:11;9.17;;;8.23;;
209;SDS011;90;48.810;9.120;2023-06-19T15:03:38;9.60;;;7.53;;
209;SDS011;90;48.810;9.120;2023-06-19T15:06:05;7.97;;;7.30;;
209;SDS011;90;48.810;9.120;2023-06-19T15:08:32;8.70;;;8.20;;
209;SDS011;90;48.810;9.120;2023-06-19T15:11:00;8.70;;;7.67;;
209;SDS011;90;48.810;9.120;2023-06-19T15:13:27;12.80;;;7.43;;
209;SDS011;90;48.810;9.120;2023-06-19T15:15:54;7.83;;;7.43;;
209;SDS011;90;48.810;9.120;2023-06-19T15:18:22;8.83;;;8.33;;
209;SDS011;90;48.810;9.120;2023-06-19T15:20:49;10.10;;;8.47;;
209;SDS011;90;48.810;9.120;2023-06-19T15:23:16;8.43;;;7.97;;
209;SDS011;90;48.810;9.120;2023-06-19T15:25:42;9.53;;;8.10;;
209;SDS011;90;48.810;9.120;2023-06-19T15:28:09;11.03;;;8.67;;
209;SDS011;90;48.810;9.120;2023-06-19T15:30:36;8.10;;;7.77;;
209;SDS011;90;48.810;9.120;2023-06-19T15:33:03;8.20;;;7.70;;
209;SDS011;90;48.810;9.120;2023-06-19T15:35:34;8.60;;;8.10;;
209;SDS011;90;48.810;9.120;2023-06-19T15:38:00;7.90;;;7.50;;
209;SDS011;90;48.810;9.120;2023-06-19T15:40:28;12.47;;;8.00;;
209;SDS011;90;48.810;9.120;2023-06-19T15:42:59;14.53;;;8.63;;
209;SDS011;90;48.810;9.120;2023-06-19T15:45:27;9.23;;;8.10;;
209;SDS011;90;48.810;9.120;2023-06-19T15:47:54;7.67;;;7.27;;
209;SDS011;90;48.810;9.120;2023-06-19T15:50:21;8.57;;;8.07;;
209;SDS011;90;48.810;9.120;2023-06-19T15:52:49;8.70;;;8.20;;
209;SDS011;90;48.810;9.120;2023-06-19T15:55:16;8.00;;;7.60;;
209;SDS011;90;48.810;9.120;2023-06-19T15:57:43;10.90;;;8.47;;
209;SDS011;90;48.810;9.120;2023-06-19T16:00:10;8.10;;;7.70;;